Terminal Aerodrome Forecast
Issued by NWS Jackson, MS

Home | Current Version | Previous Version | Text Only | Print | Product List | Glossary On
Versions: 1 2 3 4 5 6 7 8 9 10 11 12 13 14 15 16 17 18 19 20
000
FTUS44 KJAN 242330
TAFGWO
TAF
KGWO 242330Z 2500/2524 21005KT P6SM VCTS SCT025 BKN060CB
     FM250300 23003KT 5SM BR BKN050
     FM251300 24004KT P6SM FEW035 SCT250
     FM252000 23006KT P6SM VCTS SCT050CB=

USA.gov is the U.S. government's official web portal to all federal, state and local government web resources and services.